createdAt,value
2024-04-18T00:02:19.554Z,55.15
2024-04-18T00:04:46.552Z,55.74
2024-04-18T00:07:13.503Z,56.63
2024-04-18T00:09:40.556Z,54.86
2024-04-18T00:12:07.541Z,55.29
2024-04-18T00:14:34.472Z,56.04
2024-04-18T00:17:01.486Z,57.06
2024-04-18T00:19:28.454Z,57.20
2024-04-18T00:21:55.358Z,56.83
2024-04-18T00:24:22.310Z,59.31
2024-04-18T00:26:49.261Z,58.64
2024-04-18T00:29:16.207Z,59.45
2024-04-18T00:31:43.134Z,57.67
2024-04-18T00:34:10.116Z,57.82
2024-04-18T00:36:37.056Z,55.19
2024-04-18T00:39:04.037Z,55.13
2024-04-18T00:41:31.000Z,55.64
2024-04-18T00:44:00.314Z,55.57
2024-04-18T00:46:28.841Z,55.71
2024-04-18T00:48:55.840Z,54.06
2024-04-18T00:51:22.886Z,55.43
2024-04-18T00:53:49.834Z,55.63
2024-04-18T00:56:18.537Z,55.72
2024-04-18T00:58:45.776Z,53.83
2024-04-18T01:01:12.814Z,55.18
2024-04-18T01:03:39.831Z,55.08
2024-04-18T01:06:06.874Z,56.23
2024-04-18T01:08:33.820Z,55.04
2024-04-18T01:11:00.735Z,54.46
2024-04-18T01:13:27.711Z,56.64
2024-04-18T01:15:54.741Z,56.80
2024-04-18T01:18:21.738Z,57.37
2024-04-18T01:20:48.661Z,56.92
2024-04-18T01:23:15.594Z,55.80
2024-04-18T01:25:42.563Z,56.77
2024-04-18T01:28:09.500Z,55.81
2024-04-18T01:30:36.471Z,56.30
2024-04-18T01:33:03.569Z,56.53
2024-04-18T01:35:30.529Z,57.99
2024-04-18T01:37:57.465Z,58.25
2024-04-18T01:40:24.420Z,57.40
2024-04-18T01:42:51.386Z,57.85
2024-04-18T01:45:18.356Z,57.99
2024-04-18T01:47:45.375Z,57.46
2024-04-18T01:50:12.362Z,58.11
2024-04-18T01:52:39.317Z,58.22
2024-04-18T01:55:06.304Z,57.38
2024-04-18T01:57:33.272Z,57.73
2024-04-18T02:00:00.356Z,56.99
2024-04-18T02:02:27.354Z,58.11
2024-04-18T02:04:54.344Z,58.55
2024-04-18T02:07:21.294Z,59.42
2024-04-18T02:09:48.229Z,59.49
2024-04-18T02:12:15.313Z,59.35
2024-04-18T02:14:42.287Z,59.92
2024-04-18T02:17:09.240Z,60.96
2024-04-18T02:19:36.171Z,62.74
2024-04-18T02:22:03.112Z,62.11
2024-04-18T02:24:30.044Z,61.98
2024-04-18T02:26:56.981Z,63.14
2024-04-18T02:29:23.974Z,63.85
2024-04-18T02:31:50.947Z,63.54
2024-04-18T02:34:17.899Z,64.65
2024-04-18T02:36:44.931Z,64.89
2024-04-18T02:39:11.981Z,65.97
2024-04-18T02:41:38.906Z,66.33
2024-04-18T02:44:05.833Z,65.68
2024-04-18T02:46:32.749Z,65.65
2024-04-18T02:48:59.730Z,65.64
2024-04-18T02:51:26.731Z,65.52
2024-04-18T02:53:53.717Z,66.42
2024-04-18T02:56:20.639Z,67.28
2024-04-18T02:58:47.580Z,67.17
2024-04-18T03:01:14.637Z,68.16
2024-04-18T03:03:41.736Z,68.22
2024-04-18T03:06:08.732Z,69.16
2024-04-18T03:08:35.659Z,69.05
2024-04-18T03:11:02.568Z,68.91
2024-04-18T03:13:29.519Z,68.66
2024-04-18T03:15:56.456Z,69.26
2024-04-18T03:18:23.455Z,69.69
2024-04-18T03:20:50.381Z,68.82
2024-04-18T03:23:17.331Z,66.89
2024-04-18T03:25:44.248Z,66.63
2024-04-18T03:28:11.194Z,66.05
2024-04-18T03:30:38.182Z,65.60
2024-04-18T03:33:05.150Z,64.97
2024-04-18T03:35:32.089Z,64.95
2024-04-18T03:37:59.004Z,64.60
2024-04-18T03:40:25.952Z,63.27
2024-04-18T03:42:52.929Z,63.20
2024-04-18T03:45:19.972Z,62.36
2024-04-18T03:47:46.998Z,62.53
2024-04-18T03:50:14.011Z,62.94
2024-04-18T03:52:40.972Z,62.35
2024-04-18T03:55:07.977Z,61.90
2024-04-18T03:57:35.019Z,61.42
2024-04-18T04:00:01.953Z,60.59
2024-04-18T04:02:28.959Z,62.06
2024-04-18T04:04:58.864Z,61.03
2024-04-18T04:07:25.801Z,61.72
2024-04-18T04:09:52.798Z,60.87
2024-04-18T04:12:19.760Z,61.70
2024-04-18T04:14:46.738Z,61.54
2024-04-18T04:17:13.689Z,61.15
2024-04-18T04:19:40.651Z,61.83
2024-04-18T04:22:07.954Z,61.54
2024-04-18T04:24:34.960Z,61.17
2024-04-18T04:27:01.923Z,60.38
2024-04-18T04:29:28.838Z,60.85
2024-04-18T04:31:55.822Z,60.02
2024-04-18T04:34:22.807Z,61.39
2024-04-18T04:36:49.907Z,61.69
2024-04-18T04:39:16.894Z,61.78
2024-04-18T04:41:43.843Z,62.07
2024-04-18T04:44:10.775Z,61.05
2024-04-18T04:46:37.701Z,60.60
2024-04-18T04:49:04.852Z,59.98
2024-04-18T04:51:31.842Z,60.19
2024-04-18T04:53:58.782Z,60.39
2024-04-18T04:56:25.719Z,60.57
2024-04-18T04:58:52.670Z,59.95
2024-04-18T05:01:19.605Z,59.87
2024-04-18T05:03:46.613Z,59.21
2024-04-18T05:06:13.555Z,59.28
2024-04-18T05:08:40.490Z,58.56
2024-04-18T05:11:07.465Z,58.87
2024-04-18T05:13:34.454Z,57.03
2024-04-18T05:16:01.546Z,55.38
2024-04-18T05:18:28.595Z,57.40
2024-04-18T05:20:55.590Z,56.06
2024-04-18T05:23:22.536Z,54.70
2024-04-18T05:25:49.496Z,53.46
2024-04-18T05:28:16.444Z,54.56
2024-04-18T05:30:43.406Z,51.62
2024-04-18T05:33:10.386Z,51.03
2024-04-18T05:35:37.397Z,52.27
2024-04-18T05:38:04.360Z,53.89
2024-04-18T05:40:31.297Z,50.58
2024-04-18T05:42:58.258Z,50.27
2024-04-18T05:45:25.244Z,51.76
2024-04-18T05:47:52.356Z,49.03
2024-04-18T05:50:19.317Z,49.61
2024-04-18T05:52:46.226Z,49.44
2024-04-18T05:55:13.149Z,49.24
2024-04-18T05:57:40.070Z,48.97
2024-04-18T06:00:07.022Z,49.71
2024-04-18T06:02:34.043Z,49.22
2024-04-18T06:05:01.061Z,50.67
2024-04-18T06:07:27.991Z,48.50
2024-04-18T06:09:54.949Z,48.68
2024-04-18T06:12:21.962Z,47.57
2024-04-18T06:14:48.917Z,47.67
2024-04-18T06:17:15.842Z,46.07
2024-04-18T06:19:42.778Z,45.82
2024-04-18T06:22:09.738Z,46.28
2024-04-18T06:24:36.762Z,46.52
2024-04-18T06:27:03.718Z,45.43
2024-04-18T06:29:30.659Z,45.08
2024-04-18T06:31:57.646Z,46.21
2024-04-18T06:34:24.748Z,45.50
2024-04-18T06:36:51.826Z,46.05
2024-04-18T06:39:18.899Z,47.47
2024-04-18T06:41:45.896Z,45.51
2024-04-18T06:44:12.855Z,44.80
2024-04-18T06:46:48.707Z,44.79
2024-04-18T06:49:19.867Z,43.60
2024-04-18T06:51:46.856Z,43.48
2024-04-18T06:54:13.850Z,43.05
2024-04-18T06:56:40.801Z,43.99
2024-04-18T06:59:07.742Z,44.25
2024-04-18T07:01:34.677Z,42.87
2024-04-18T07:04:01.866Z,41.99
2024-04-18T07:06:28.990Z,42.17
2024-04-18T07:08:55.961Z,41.52
2024-04-18T07:11:22.887Z,42.49
2024-04-18T07:13:49.850Z,41.81
2024-04-18T07:16:16.799Z,42.39
2024-04-18T07:18:43.787Z,42.04
2024-04-18T07:21:10.763Z,40.06
2024-04-18T07:23:37.790Z,40.60
2024-04-18T07:26:04.767Z,40.68
2024-04-18T07:28:31.730Z,40.05
2024-04-18T07:30:58.755Z,39.81
2024-04-18T07:33:25.848Z,40.21
2024-04-18T07:35:52.903Z,40.42
2024-04-18T07:38:19.843Z,39.21
2024-04-18T07:40:46.820Z,39.09
2024-04-18T07:43:13.815Z,38.56
2024-04-18T07:45:40.864Z,39.18
2024-04-18T07:48:07.955Z,37.95
2024-04-18T07:50:34.968Z,38.26
2024-04-18T07:53:09.270Z,37.99
2024-04-18T07:55:37.354Z,35.44
2024-04-18T07:58:05.251Z,35.40
2024-04-18T08:00:34.392Z,35.61
2024-04-18T08:03:04.741Z,36.55
2024-04-18T08:05:36.176Z,36.77
2024-04-18T08:08:08.233Z,36.88
2024-04-18T08:10:52.050Z,36.85
2024-04-18T08:13:27.707Z,35.32
2024-04-18T08:18:23.961Z,36.22
2024-04-18T08:20:50.481Z,37.27
2024-04-18T08:23:17.233Z,36.83
2024-04-18T08:25:43.950Z,37.87
2024-04-18T08:28:10.574Z,36.51
2024-04-18T08:30:37.231Z,37.05
2024-04-18T08:33:03.872Z,36.95
2024-04-18T08:35:30.517Z,38.55
2024-04-18T08:37:57.052Z,38.67
2024-04-18T08:40:23.621Z,41.65
2024-04-18T08:42:50.165Z,39.14
2024-04-18T08:45:16.737Z,38.59
2024-04-18T08:47:43.540Z,37.61
2024-04-18T08:50:10.114Z,37.15
2024-04-18T08:52:38.727Z,36.64
2024-04-18T08:55:05.524Z,37.12
2024-04-18T08:57:32.142Z,36.47
2024-04-18T08:59:58.888Z,36.26
2024-04-18T09:02:25.573Z,36.87
2024-04-18T09:04:52.145Z,36.99
2024-04-18T09:07:18.674Z,36.20
2024-04-18T09:09:45.231Z,36.25
2024-04-18T09:12:11.807Z,36.74
2024-04-18T09:14:38.761Z,37.09
2024-04-18T09:17:05.709Z,36.48
2024-04-18T09:19:32.667Z,36.43
2024-04-18T09:21:59.636Z,36.21
2024-04-18T09:24:26.593Z,36.41
2024-04-18T09:26:53.634Z,36.44
2024-04-18T09:29:20.573Z,37.35
2024-04-18T09:31:47.487Z,36.92
2024-04-18T09:34:14.559Z,36.51
2024-04-18T09:36:41.693Z,37.24
2024-04-18T09:39:08.789Z,36.91
2024-04-18T09:41:35.792Z,37.73
2024-04-18T09:44:02.758Z,37.42
2024-04-18T09:46:29.753Z,37.54
2024-04-18T09:48:56.797Z,36.48
2024-04-18T09:51:23.910Z,35.61
2024-04-18T09:53:51.976Z,34.82
2024-04-18T09:56:18.947Z,35.05
2024-04-18T09:58:45.997Z,34.91
2024-04-18T10:01:13.106Z,35.12
2024-04-18T10:03:40.223Z,35.91
2024-04-18T10:06:07.217Z,35.08
2024-04-18T10:08:34.148Z,35.27
2024-04-18T10:11:01.122Z,35.61
2024-04-18T10:13:28.061Z,35.40
2024-04-18T10:15:55.113Z,34.83
2024-04-18T10:18:22.157Z,35.13
2024-04-18T10:20:49.279Z,34.62
2024-04-18T10:23:16.215Z,35.19
2024-04-18T10:25:43.181Z,35.39
2024-04-18T10:28:10.104Z,35.14
2024-04-18T10:30:37.108Z,36.38
2024-04-18T10:33:04.294Z,35.69
2024-04-18T10:35:31.386Z,36.02
2024-04-18T10:37:58.398Z,36.41
2024-04-18T10:40:25.334Z,38.15
2024-04-18T10:42:52.276Z,38.24
2024-04-18T10:45:19.439Z,39.00
2024-04-18T10:47:49.371Z,39.04
2024-04-18T10:50:18.683Z,38.88
2024-04-18T10:52:45.234Z,38.45
2024-04-18T10:55:11.825Z,38.31
2024-04-18T10:57:38.449Z,37.82
2024-04-18T11:00:05.125Z,37.60
2024-04-18T11:02:33.705Z,38.00
2024-04-18T11:05:00.484Z,36.89
2024-04-18T11:07:27.052Z,37.13
2024-04-18T11:09:53.620Z,37.58
2024-04-18T11:12:20.205Z,36.33
2024-04-18T11:14:46.817Z,36.43
2024-04-18T11:17:13.416Z,37.09
2024-04-18T11:19:39.951Z,39.34
2024-04-18T11:22:06.490Z,40.88
2024-04-18T11:24:33.109Z,40.57
2024-04-18T11:26:59.707Z,38.67
2024-04-18T11:29:26.250Z,38.07
2024-04-18T11:31:52.846Z,37.48
2024-04-18T11:34:19.419Z,36.77
2024-04-18T11:36:46.047Z,37.19
2024-04-18T11:39:12.733Z,36.25
2024-04-18T11:41:39.303Z,38.02
2024-04-18T11:44:05.922Z,37.47
2024-04-18T11:46:32.499Z,36.94
2024-04-18T11:48:59.610Z,36.15
2024-04-18T11:51:26.638Z,36.31
2024-04-18T11:53:53.644Z,36.04
2024-04-18T11:56:20.576Z,37.46
2024-04-18T11:58:47.550Z,36.47
2024-04-18T12:01:14.561Z,35.35
2024-04-18T12:03:41.705Z,33.88
2024-04-18T12:06:08.969Z,33.91
2024-04-18T12:08:36.093Z,34.74
2024-04-18T12:11:03.146Z,33.53
2024-04-18T12:13:30.115Z,34.15
2024-04-18T12:15:57.213Z,33.01
2024-04-18T12:18:26.473Z,32.35
2024-04-18T12:20:54.878Z,32.79
2024-04-18T12:23:21.869Z,32.70
2024-04-18T12:25:48.428Z,31.75
2024-04-18T12:28:14.983Z,31.60
2024-04-18T12:30:41.558Z,31.19
2024-04-18T12:33:08.247Z,30.88
2024-04-18T12:35:34.844Z,31.20
2024-04-18T12:38:01.442Z,29.47
2024-04-18T12:40:27.979Z,29.30
2024-04-18T12:42:54.552Z,28.80
2024-04-18T12:45:21.173Z,29.09
2024-04-18T12:47:47.810Z,29.49
2024-04-18T12:50:14.476Z,29.64
2024-04-18T12:52:41.053Z,29.79
2024-04-18T12:55:07.727Z,28.86
2024-04-18T12:57:34.368Z,27.13
2024-04-18T13:00:00.952Z,25.38
2024-04-18T13:02:27.725Z,25.41
2024-04-18T13:04:54.384Z,25.22
2024-04-18T13:07:20.964Z,25.58
2024-04-18T13:09:47.532Z,25.07
2024-04-18T13:12:14.105Z,24.15
2024-04-18T13:14:40.688Z,27.37
2024-04-18T13:17:07.233Z,31.14
2024-04-18T13:19:33.770Z,32.08
2024-04-18T13:22:00.849Z,34.55
2024-04-18T13:24:28.017Z,38.17
2024-04-18T13:26:54.999Z,38.31
2024-04-18T13:29:22.034Z,38.63
2024-04-18T13:31:49.023Z,38.55
2024-04-18T13:34:16.023Z,39.47
2024-04-18T13:36:42.972Z,36.12
2024-04-18T13:39:09.966Z,35.63
2024-04-18T13:41:37.081Z,34.15
2024-04-18T13:44:04.032Z,32.08
2024-04-18T13:46:30.967Z,32.61
2024-04-18T13:48:58.015Z,32.59
2024-04-18T13:51:25.016Z,32.20
2024-04-18T13:53:51.973Z,31.17
2024-04-18T13:56:18.929Z,31.14
2024-04-18T13:58:45.868Z,28.79
2024-04-18T14:01:12.881Z,27.32
2024-04-18T14:03:39.902Z,26.97
2024-04-18T14:06:07.016Z,26.78
2024-04-18T14:08:34.013Z,25.17
2024-04-18T14:11:01.035Z,23.97
2024-04-18T14:13:28.012Z,24.53
2024-04-18T14:15:54.941Z,25.12
2024-04-18T14:18:21.892Z,25.82
2024-04-18T14:20:48.873Z,25.76
2024-04-18T14:23:15.783Z,26.82
2024-04-18T14:25:42.732Z,27.35
2024-04-18T14:28:16.357Z,27.64
2024-04-18T14:30:50.841Z,27.93
2024-04-18T14:33:17.859Z,26.70
2024-04-18T14:35:44.937Z,27.64
2024-04-18T14:38:11.878Z,28.48
2024-04-18T14:40:40.907Z,28.15
2024-04-18T14:43:09.432Z,25.90
2024-04-18T14:45:36.382Z,24.12
2024-04-18T14:48:03.495Z,20.88
2024-04-18T14:50:30.488Z,20.28
2024-04-18T14:52:57.426Z,20.16
2024-04-18T14:55:24.381Z,20.28
2024-04-18T14:57:51.389Z,23.21
2024-04-18T15:00:18.398Z,25.08
2024-04-18T15:02:45.472Z,21.89
2024-04-18T15:05:12.406Z,19.76
2024-04-18T15:07:39.334Z,19.22
2024-04-18T15:10:06.331Z,19.24
2024-04-18T15:12:33.296Z,19.16
2024-04-18T15:15:00.289Z,18.40
2024-04-18T15:17:27.345Z,20.56
2024-04-18T15:19:54.364Z,22.87
2024-04-18T15:22:21.310Z,24.53
2024-04-18T15:24:48.273Z,25.07
2024-04-18T15:27:15.269Z,27.37
2024-04-18T15:29:42.248Z,28.41
2024-04-18T15:32:09.186Z,28.41
2024-04-18T15:34:36.130Z,28.77
2024-04-18T15:37:03.178Z,28.29
2024-04-18T15:39:30.190Z,27.41
2024-04-18T15:41:57.144Z,28.93
2024-04-18T15:44:24.095Z,30.05
2024-04-18T15:46:51.024Z,30.13
2024-04-18T15:49:17.966Z,30.59
2024-04-18T15:51:45.047Z,31.46
2024-04-18T15:54:12.026Z,31.19
2024-04-18T15:56:38.966Z,31.83
2024-04-18T15:59:05.886Z,32.89
2024-04-18T16:01:32.892Z,33.67
2024-04-18T16:04:00.060Z,34.14
2024-04-18T16:06:27.191Z,34.58
2024-04-18T16:08:54.149Z,34.66
2024-04-18T16:11:21.098Z,34.51
2024-04-18T16:13:48.056Z,33.87
2024-04-18T16:16:15.013Z,33.32
2024-04-18T16:18:42.138Z,33.14
2024-04-18T16:21:09.150Z,32.52
2024-04-18T16:23:36.211Z,31.68
2024-04-18T16:26:03.183Z,30.63
2024-04-18T16:28:30.158Z,31.34
2024-04-18T16:30:57.131Z,33.04
2024-04-18T16:33:24.123Z,31.63
2024-04-18T16:35:51.147Z,31.13
2024-04-18T16:38:18.153Z,31.15
2024-04-18T16:40:45.119Z,30.88
2024-04-18T16:43:12.107Z,30.77
2024-04-18T16:45:39.073Z,31.02
2024-04-18T16:48:06.176Z,31.32
2024-04-18T16:50:33.187Z,32.49
2024-04-18T16:53:00.144Z,33.12
2024-04-18T16:55:27.073Z,32.97
2024-04-18T16:57:54.002Z,32.77
2024-04-18T17:00:20.939Z,33.29
2024-04-18T17:02:47.971Z,33.26
2024-04-18T17:05:14.911Z,33.97
2024-04-18T17:07:41.834Z,33.62
2024-04-18T17:10:08.893Z,34.25
2024-04-18T17:12:35.970Z,34.70
2024-04-18T17:15:02.924Z,35.46
2024-04-18T17:17:32.487Z,36.68
2024-04-18T17:19:59.432Z,36.43
2024-04-18T17:22:26.362Z,37.94
2024-04-18T17:24:53.305Z,37.83
2024-04-18T17:27:20.283Z,39.11
2024-04-18T17:29:47.292Z,40.55
2024-04-18T17:32:14.248Z,42.42
2024-04-18T17:34:41.235Z,42.55
2024-04-18T17:37:08.248Z,41.86
2024-04-18T17:39:35.242Z,43.14
2024-04-18T17:42:02.180Z,43.71
2024-04-18T17:44:29.119Z,43.52
2024-04-18T17:46:56.075Z,43.24
2024-04-18T17:49:23.121Z,43.70
2024-04-18T17:51:50.159Z,43.76
2024-04-18T17:54:17.123Z,43.56
2024-04-18T17:56:44.073Z,43.37
2024-04-18T17:59:11.003Z,43.21
2024-04-18T18:01:41.619Z,42.15
2024-04-18T18:04:09.495Z,42.14
2024-04-18T18:06:36.682Z,43.48
2024-04-18T18:09:03.770Z,42.97
2024-04-18T18:11:30.728Z,43.31
2024-04-18T18:13:57.712Z,43.05
2024-04-18T18:16:24.723Z,42.71
2024-04-18T18:18:51.775Z,43.61
2024-04-18T18:21:18.937Z,43.11
2024-04-18T18:23:45.923Z,43.74
2024-04-18T18:26:12.868Z,44.03
2024-04-18T18:28:39.887Z,43.13
2024-04-18T18:31:06.836Z,44.06
2024-04-18T18:33:33.837Z,44.13
2024-04-18T18:36:00.954Z,44.63
2024-04-18T18:38:27.893Z,44.94
2024-04-18T18:40:54.834Z,45.02
2024-04-18T18:43:21.801Z,44.54
2024-04-18T18:45:48.753Z,44.57
2024-04-18T18:48:15.868Z,45.36
2024-04-18T18:50:42.905Z,44.40
2024-04-18T18:53:09.885Z,44.50
2024-04-18T18:55:36.844Z,44.88
2024-04-18T18:58:03.799Z,45.65
2024-04-18T19:00:30.870Z,45.27
2024-04-18T19:02:58.931Z,45.97
2024-04-18T19:05:26.768Z,46.23
2024-04-18T19:07:53.749Z,46.08
2024-04-18T19:10:20.714Z,45.24
2024-04-18T19:12:47.700Z,46.04
2024-04-18T19:15:14.880Z,45.81
2024-04-18T19:17:41.869Z,44.74
2024-04-18T19:20:08.500Z,44.61
2024-04-18T19:22:35.055Z,45.15
2024-04-18T19:25:01.582Z,45.26
2024-04-18T19:27:28.212Z,44.94
2024-04-18T19:29:54.907Z,45.65
2024-04-18T19:32:21.459Z,44.80
2024-04-18T19:34:48.022Z,45.28
2024-04-18T19:37:14.598Z,45.26
2024-04-18T19:39:41.229Z,45.19
2024-04-18T19:42:07.876Z,45.66
2024-04-18T19:44:34.574Z,45.84
2024-04-18T19:47:01.238Z,44.87
2024-04-18T19:49:27.788Z,45.99
2024-04-18T19:51:54.341Z,45.56
2024-04-18T19:54:20.922Z,44.86
2024-04-18T19:56:47.503Z,44.65
2024-04-18T19:59:14.041Z,45.42
2024-04-18T20:01:40.670Z,45.43
2024-04-18T20:04:07.330Z,44.75
2024-04-18T20:06:33.951Z,44.77
2024-04-18T20:09:00.711Z,44.09
2024-04-18T20:11:27.465Z,44.32
2024-04-18T20:13:54.071Z,43.98
2024-04-18T20:16:20.604Z,45.22
2024-04-18T20:18:47.818Z,45.56
2024-04-18T20:21:14.862Z,45.40
2024-04-18T20:23:41.787Z,45.11
2024-04-18T20:26:08.731Z,45.47
2024-04-18T20:28:35.751Z,45.61
2024-04-18T20:31:02.685Z,46.23
2024-04-18T20:33:29.730Z,46.37
2024-04-18T20:35:56.722Z,46.58
2024-04-18T20:38:23.649Z,46.77
2024-04-18T20:40:50.629Z,47.00
2024-04-18T20:43:17.555Z,46.43
2024-04-18T20:45:44.544Z,47.31
2024-04-18T20:48:11.622Z,46.99
2024-04-18T20:50:38.664Z,46.85
2024-04-18T20:53:05.650Z,47.57
2024-04-18T20:55:32.627Z,47.77
2024-04-18T20:57:59.586Z,48.02
2024-04-18T21:00:26.585Z,48.25
2024-04-18T21:02:53.586Z,48.44
2024-04-18T21:05:20.520Z,48.71
2024-04-18T21:07:47.465Z,48.79
2024-04-18T21:10:14.526Z,48.82
2024-04-18T21:12:41.701Z,48.77
2024-04-18T21:15:08.821Z,48.54
2024-04-18T21:17:36.070Z,47.84
2024-04-18T21:20:03.178Z,48.23
2024-04-18T21:22:30.198Z,47.64
2024-04-18T21:24:57.162Z,47.93
2024-04-18T21:27:24.158Z,48.14
2024-04-18T21:29:51.163Z,48.38
2024-04-18T21:32:18.104Z,48.15
2024-04-18T21:34:45.025Z,47.74
2024-04-18T21:37:11.957Z,48.89
2024-04-18T21:39:39.030Z,48.77
2024-04-18T21:42:06.109Z,48.53
2024-04-18T21:44:33.016Z,48.63
2024-04-18T21:46:59.955Z,48.42
2024-04-18T21:49:26.935Z,49.50
2024-04-18T21:51:53.946Z,49.29
2024-04-18T21:54:21.026Z,49.41
2024-04-18T21:56:48.003Z,49.86
2024-04-18T21:59:14.915Z,49.45
2024-04-18T22:01:41.891Z,49.93
2024-04-18T22:04:08.872Z,50.06
2024-04-18T22:06:35.950Z,48.92
2024-04-18T22:09:02.887Z,49.80
2024-04-18T22:11:29.982Z,50.67
2024-04-18T22:13:57.066Z,51.19
2024-04-18T22:16:23.998Z,50.86
2024-04-18T22:18:51.074Z,50.39
2024-04-18T22:21:18.175Z,51.06
2024-04-18T22:23:46.275Z,51.21
2024-04-18T22:26:14.200Z,50.70
2024-04-18T22:28:41.148Z,50.29
2024-04-18T22:31:08.113Z,50.16
2024-04-18T22:33:35.131Z,50.01
2024-04-18T22:36:02.110Z,49.92
2024-04-18T22:38:29.038Z,49.11
2024-04-18T22:40:55.946Z,48.55
2024-04-18T22:43:22.869Z,48.20
2024-04-18T22:45:49.846Z,48.60
2024-04-18T22:48:16.921Z,47.65
2024-04-18T22:50:44.001Z,48.23
2024-04-18T22:53:10.910Z,48.24
2024-04-18T22:55:37.857Z,48.39
2024-04-18T22:58:05.937Z,48.57
2024-04-18T23:00:33.008Z,47.30
2024-04-18T23:02:59.991Z,46.91
2024-04-18T23:05:26.912Z,47.43
2024-04-18T23:07:53.857Z,47.96
2024-04-18T23:10:20.789Z,48.18
2024-04-18T23:12:47.746Z,48.50
2024-04-18T23:15:14.755Z,48.38
2024-04-18T23:17:41.787Z,48.36
2024-04-18T23:20:08.804Z,48.79
2024-04-18T23:22:35.741Z,49.40
2024-04-18T23:25:02.657Z,51.61
2024-04-18T23:27:29.612Z,50.92
2024-04-18T23:29:56.556Z,52.01
2024-04-18T23:32:23.508Z,51.70
2024-04-18T23:34:50.465Z,50.46
2024-04-18T23:37:17.381Z,50.51
2024-04-18T23:39:44.370Z,51.39
2024-04-18T23:42:11.378Z,51.57
2024-04-18T23:44:38.362Z,52.06
2024-04-18T23:47:05.266Z,51.93
2024-04-18T23:49:32.191Z,50.87
2024-04-18T23:51:59.108Z,50.63
2024-04-18T23:54:26.094Z,51.04
2024-04-18T23:56:53.048Z,50.80
2024-04-18T23:59:19.967Z,50.55
